Time;durP1;ratioP1;P1;durP2;ratioP2;P2;SDS_P1;SDS_P2;PMS_P1;PMS_P2;Temp;Humidity;BMP_temperature;BMP_pressure;BME280_temperature;BME280_humidity;BME280_pressure;Samples;Min_cycle;Max_cycle;Signal;HPM_P1;HPM_P2
2021/07/03 00:00:50;;;;;;;12.63;8.30;;;;;;;11.36;49.54;95682.84;5050749;28;20076;-68
2021/07/03 00:03:16;;;;;;;10.30;7.05;;;;;;;11.35;49.41;95671.34;5056486;28;20151;-68
2021/07/03 00:05:41;;;;;;;11.10;7.85;;;;;;;11.33;50.10;95678.72;5044934;28;20073;-68
2021/07/03 00:08:06;;;;;;;13.25;8.27;;;;;;;11.28;50.27;95672.25;5053891;28;20891;-68
2021/07/03 00:10:32;;;;;;;11.32;8.05;;;;;;;11.25;50.08;95676.09;5046758;28;20101;-68
2021/07/03 00:12:58;;;;;;;14.40;9.25;;;;;;;11.26;50.62;95672.44;5048566;28;20079;-68
2021/07/03 00:15:23;;;;;;;18.30;12.10;;;;;;;11.22;51.45;95679.94;5051069;28;20096;-68
2021/07/03 00:17:50;;;;;;;14.00;8.25;;;;;;;11.19;50.92;95677.63;5065687;28;20084;-68
2021/07/03 00:20:15;;;;;;;15.27;10.63;;;;;;;11.22;50.74;95676.47;5069400;28;20543;-68
2021/07/03 00:22:41;;;;;;;13.93;9.07;;;;;;;11.18;50.12;95672.53;5054847;28;20361;-68
2021/07/03 00:25:07;;;;;;;13.63;8.90;;;;;;;11.13;50.95;95678.38;5064271;28;20081;-68
2021/07/03 00:27:32;;;;;;;13.32;9.73;;;;;;;11.11;51.45;95680.38;5024694;28;20120;-68
2021/07/03 00:29:57;;;;;;;9.23;7.05;;;;;;;11.10;50.03;95684.91;5047839;28;20108;-68
2021/07/03 00:32:23;;;;;;;11.88;7.78;;;;;;;11.07;50.45;95679.91;5045621;28;20566;-68
2021/07/03 00:34:49;;;;;;;14.57;8.85;;;;;;;11.04;50.90;95679.41;5042104;28;20129;-68
2021/07/03 00:37:15;;;;;;;12.15;8.45;;;;;;;11.01;51.36;95677.94;5056364;28;20564;-68
2021/07/03 00:39:40;;;;;;;13.65;9.25;;;;;;;11.00;51.36;95685.13;5052777;28;20212;-68
2021/07/03 00:42:06;;;;;;;16.85;9.77;;;;;;;10.95;51.66;95684.81;5044115;28;20092;-68
2021/07/03 00:44:32;;;;;;;14.05;9.70;;;;;;;10.92;51.83;95679.88;5044470;28;20188;-68
2021/07/03 00:46:59;;;;;;;11.23;7.80;;;;;;;10.93;50.84;95683.34;5053319;28;20125;-68
2021/07/03 00:49:25;;;;;;;15.75;9.57;;;;;;;10.90;51.84;95668.53;5044108;28;20104;-68
2021/07/03 00:51:50;;;;;;;14.88;9.43;;;;;;;10.93;50.98;95675.34;5046070;28;20101;-68
2021/07/03 00:54:16;;;;;;;12.00;8.88;;;;;;;10.91;50.70;95680.84;5050163;28;20073;-68
2021/07/03 00:56:41;;;;;;;14.38;9.55;;;;;;;10.92;50.82;95679.03;5045472;28;20073;-68
2021/07/03 00:59:07;;;;;;;13.57;9.27;;;;;;;10.89;51.40;95677.53;5059063;28;20474;-68
2021/07/03 01:01:32;;;;;;;10.30;7.43;;;;;;;10.90;50.62;95670.38;5029052;28;20069;-68
2021/07/03 01:03:58;;;;;;;11.07;7.55;;;;;;;10.92;50.59;95673.69;5046422;28;20104;-68
2021/07/03 01:06:24;;;;;;;10.73;7.68;;;;;;;10.94;50.67;95669.84;5047267;28;20105;-68
2021/07/03 01:08:50;;;;;;;12.88;8.10;;;;;;;10.95;50.44;95668.00;5050557;28;20112;-68
2021/07/03 01:11:28;;;;;;;9.68;5.88;;;;;;;10.87;50.09;95672.41;5044065;28;20510;-68
2021/07/03 01:13:54;;;;;;;11.60;8.30;;;;;;;10.88;51.47;95679.38;5044543;28;20081;-68
2021/07/03 01:16:19;;;;;;;12.75;7.50;;;;;;;10.88;51.24;95682.03;5049978;28;20101;-68
2021/07/03 01:18:45;;;;;;;10.02;6.50;;;;;;;10.90;51.30;95678.34;5049582;28;20435;-68
2021/07/03 01:21:10;;;;;;;12.43;7.00;;;;;;;10.90;50.68;95678.34;5048271;28;20078;-68
2021/07/03 01:23:35;;;;;;;10.93;7.60;;;;;;;10.85;51.45;95677.06;5026790;28;20570;-68
2021/07/03 01:26:01;;;;;;;10.27;7.25;;;;;;;10.83;51.33;95678.25;5044603;28;20089;-67
2021/07/03 01:28:26;;;;;;;11.00;6.57;;;;;;;10.80;51.23;95678.59;5051661;28;20147;-68
2021/07/03 01:30:52;;;;;;;10.88;7.57;;;;;;;10.78;51.25;95670.78;5046467;28;20105;-68
2021/07/03 01:33:18;;;;;;;8.65;6.25;;;;;;;10.80;50.60;95673.28;5042218;28;20108;-68
2021/07/03 01:35:44;;;;;;;11.30;7.20;;;;;;;10.78;50.67;95680.63;5052231;28;20104;-68
2021/07/03 01:38:09;;;;;;;13.00;9.35;;;;;;;10.74;51.63;95673.00;5052979;28;20419;-68
2021/07/03 01:40:35;;;;;;;11.80;8.15;;;;;;;10.75;51.86;95677.28;5057058;28;20286;-68
2021/07/03 01:43:00;;;;;;;11.93;8.18;;;;;;;10.74;51.57;95675.66;5050626;28;20589;-68
2021/07/03 01:45:26;;;;;;;10.32;7.75;;;;;;;10.71;52.17;95680.50;5053101;28;20118;-67
2021/07/03 01:47:51;;;;;;;10.15;6.40;;;;;;;10.66;52.40;95673.06;5045310;28;20117;-67
2021/07/03 01:50:17;;;;;;;11.00;7.80;;;;;;;10.65;52.31;95666.06;5052272;28;20089;-68
2021/07/03 01:52:42;;;;;;;13.07;8.25;;;;;;;10.65;52.16;95671.41;5051840;28;20076;-68
2021/07/03 01:55:08;;;;;;;10.57;8.00;;;;;;;10.63;52.17;95670.72;5053511;28;20108;-68
2021/07/03 01:57:34;;;;;;;11.70;7.75;;;;;;;10.60;52.12;95674.59;5051960;28;20077;-68
2021/07/03 02:00:00;;;;;;;10.80;7.40;;;;;;;10.58;51.78;95673.09;5055844;28;20206;-68
2021/07/03 02:02:25;;;;;;;9.90;7.20;;;;;;;10.55;51.57;95671.63;5060873;28;20085;-68
2021/07/03 02:04:50;;;;;;;8.40;6.40;;;;;;;10.55;51.49;95673.47;5057418;28;20104;-68
2021/07/03 02:07:16;;;;;;;10.55;6.80;;;;;;;10.51;52.35;95675.66;5053630;28;20117;-68
2021/07/03 02:09:41;;;;;;;11.25;7.18;;;;;;;10.50;52.54;95668.66;5058815;28;20084;-68
2021/07/03 02:12:07;;;;;;;6.75;5.20;;;;;;;10.51;52.18;95666.81;5053259;28;20557;-68
2021/07/03 02:14:32;;;;;;;9.43;6.25;;;;;;;10.54;51.32;95669.94;5053055;28;20128;-68
2021/07/03 02:16:58;;;;;;;9.15;6.30;;;;;;;10.54;51.50;95659.31;5074896;28;20093;-68
2021/07/03 02:19:23;;;;;;;14.20;6.90;;;;;;;10.51;52.61;95653.53;5056958;28;20104;-68
2021/07/03 02:21:48;;;;;;;8.95;6.50;;;;;;;10.48;52.25;95666.16;5047590;28;20093;-68
2021/07/03 02:24:14;;;;;;;10.70;6.70;;;;;;;10.46;51.49;95657.53;5047178;28;20473;-68
2021/07/03 02:26:39;;;;;;;8.88;6.15;;;;;;;10.47;51.28;95653.03;5063903;28;20123;-68
2021/07/03 02:29:05;;;;;;;9.40;6.60;;;;;;;10.45;51.84;95653.22;5054639;28;20108;-68
2021/07/03 02:31:30;;;;;;;7.90;5.70;;;;;;;10.42;51.26;95660.72;5052506;28;20585;-68
2021/07/03 02:33:56;;;;;;;9.82;5.55;;;;;;;10.44;51.83;95654.22;5049966;28;20082;-68
2021/07/03 02:36:21;;;;;;;8.73;6.28;;;;;;;10.46;52.21;95656.69;5049646;28;20104;-68
2021/07/03 02:38:47;;;;;;;11.80;6.88;;;;;;;10.45;52.01;95653.22;5048743;28;20125;-68
2021/07/03 02:41:12;;;;;;;11.52;6.97;;;;;;;10.42;52.62;95647.41;5067011;28;20124;-68
2021/07/03 02:43:37;;;;;;;8.65;6.07;;;;;;;10.41;52.81;95656.41;5049099;28;20116;-68
2021/07/03 02:46:03;;;;;;;8.75;6.53;;;;;;;10.41;52.82;95662.56;5060808;28;20170;-68
2021/07/03 02:48:28;;;;;;;9.10;6.28;;;;;;;10.43;51.95;95665.88;5052493;28;20116;-68
2021/07/03 02:50:54;;;;;;;8.75;5.35;;;;;;;10.43;52.36;95667.69;5053289;28;20146;-68
2021/07/03 02:53:19;;;;;;;8.30;5.10;;;;;;;10.42;52.34;95663.38;5050562;28;20089;-68
2021/07/03 02:55:45;;;;;;;7.75;5.53;;;;;;;10.41;51.65;95659.06;5055038;28;20161;-68
2021/07/03 02:58:10;;;;;;;12.02;5.95;;;;;;;10.35;52.39;95665.94;5049425;28;20093;-68
2021/07/03 03:00:35;;;;;;;8.05;5.95;;;;;;;10.30;52.75;95658.47;5056383;28;20484;-68
2021/07/03 03:03:01;;;;;;;8.90;6.20;;;;;;;10.28;52.58;95664.97;5050743;28;20574;-68
2021/07/03 03:05:26;;;;;;;7.65;5.47;;;;;;;10.27;52.00;95661.47;5056543;28;20081;-68
2021/07/03 03:07:52;;;;;;;7.20;5.30;;;;;;;10.26;52.14;95667.78;5052189;28;20632;-68
2021/07/03 03:10:18;;;;;;;9.18;5.65;;;;;;;10.25;52.16;95667.97;5061546;28;20085;-68
2021/07/03 03:12:43;;;;;;;10.20;6.53;;;;;;;10.23;52.71;95666.31;5058124;28;20073;-68
2021/07/03 03:15:10;;;;;;;7.25;5.10;;;;;;;10.25;52.65;95663.47;5073217;28;20116;-68
2021/07/03 03:17:35;;;;;;;7.78;5.70;;;;;;;10.23;52.79;95662.81;5046438;28;20211;-68
2021/07/03 03:20:01;;;;;;;8.07;5.88;;;;;;;10.22;53.16;95664.66;5050415;28;20109;-68
2021/07/03 03:22:26;;;;;;;8.27;6.00;;;;;;;10.23;53.37;95658.34;5061276;28;20076;-68
2021/07/03 03:24:51;;;;;;;6.38;5.05;;;;;;;10.25;52.67;95654.66;5049542;28;20431;-67
2021/07/03 03:27:17;;;;;;;8.63;6.20;;;;;;;10.27;52.79;95663.31;5046468;28;20121;-68
2021/07/03 03:29:42;;;;;;;8.43;6.47;;;;;;;10.27;53.10;95669.44;5047520;28;20092;-70
2021/07/03 03:32:08;;;;;;;7.93;5.72;;;;;;;10.28;53.32;95657.81;5053497;28;20109;-68
2021/07/03 03:34:33;;;;;;;8.00;5.22;;;;;;;10.28;52.55;95654.31;5064920;28;20105;-68
2021/07/03 03:36:59;;;;;;;7.53;5.82;;;;;;;10.31;52.71;95649.50;5029648;28;20085;-68
2021/07/03 03:39:24;;;;;;;8.05;5.28;;;;;;;10.33;52.00;95646.63;5053172;28;20101;-68
2021/07/03 03:41:50;;;;;;;8.45;5.65;;;;;;;10.40;52.88;95644.13;5046845;28;20073;-68
2021/07/03 03:44:15;;;;;;;8.35;5.32;;;;;;;10.43;52.15;95651.72;5051775;28;20105;-68
2021/07/03 03:46:41;;;;;;;7.75;5.30;;;;;;;10.43;50.11;95646.41;5048368;28;20113;-68
2021/07/03 03:49:06;;;;;;;9.00;6.47;;;;;;;10.41;53.10;95651.09;5054080;28;20138;-68
2021/07/03 03:51:31;;;;;;;8.20;5.97;;;;;;;10.47;52.71;95647.69;5049240;28;20589;-68
2021/07/03 03:53:57;;;;;;;8.65;5.18;;;;;;;10.57;52.37;95648.31;5045641;28;20085;-67
2021/07/03 03:56:22;;;;;;;7.45;5.60;;;;;;;10.65;52.46;95646.59;5050310;28;20108;-68
2021/07/03 03:58:48;;;;;;;9.73;5.18;;;;;;;10.69;52.10;95646.06;5053521;28;20480;-68
2021/07/03 04:01:13;;;;;;;7.95;5.43;;;;;;;10.79;52.04;95640.50;5051834;28;20872;-68
2021/07/03 04:03:38;;;;;;;6.28;4.90;;;;;;;10.87;50.99;95644.94;5044148;28;20104;-68
2021/07/03 04:06:04;;;;;;;6.43;4.97;;;;;;;10.94;51.31;95639.69;5052449;28;20488;-68
2021/07/03 04:08:30;;;;;;;7.28;5.43;;;;;;;10.95;51.81;95636.06;5060332;28;20084;-67
2021/07/03 04:10:55;;;;;;;8.48;5.85;;;;;;;11.07;51.90;95639.94;5045326;28;20170;-67
2021/07/03 04:13:21;;;;;;;7.85;5.32;;;;;;;11.19;51.54;95642.19;5060215;28;20393;-67
2021/07/03 04:15:47;;;;;;;6.55;4.65;;;;;;;11.34;50.06;95635.03;5048717;28;20109;-67
2021/07/03 04:18:12;;;;;;;8.98;5.20;;;;;;;11.41;50.17;95631.63;5043907;28;20690;-67
2021/07/03 04:20:38;;;;;;;8.35;5.38;;;;;;;11.46;50.57;95637.25;5059256;28;20539;-68
2021/07/03 04:23:03;;;;;;;7.63;5.38;;;;;;;11.56;50.47;95624.47;5060491;28;20104;-68
2021/07/03 04:25:29;;;;;;;7.22;5.20;;;;;;;11.66;50.16;95626.84;5047085;28;20211;-68
2021/07/03 04:27:55;;;;;;;8.10;5.53;;;;;;;11.79;49.78;95620.88;5047742;28;20159;-68
2021/07/03 04:30:20;;;;;;;6.97;5.18;;;;;;;11.90;49.87;95619.59;5028521;28;20077;-68
2021/07/03 04:32:46;;;;;;;6.60;5.20;;;;;;;12.01;49.87;95620.94;5054133;28;20079;-68
2021/07/03 04:35:12;;;;;;;7.22;5.18;;;;;;;12.08;49.57;95616.53;5045501;28;20548;-68
2021/07/03 04:37:38;;;;;;;6.97;5.40;;;;;;;12.21;49.38;95626.53;5048812;28;20097;-68
2021/07/03 04:40:04;;;;;;;7.15;5.22;;;;;;;12.33;49.22;95629.53;5050037;28;20208;-68
2021/07/03 04:42:29;;;;;;;8.85;5.45;;;;;;;12.46;49.21;95622.69;5068628;28;20167;-68
2021/07/03 04:44:55;;;;;;;8.60;5.82;;;;;;;12.57;49.04;95624.84;5047211;28;20141;-68
2021/07/03 04:47:20;;;;;;;7.25;5.40;;;;;;;12.70;48.86;95613.47;5053403;28;20625;-68
2021/07/03 04:49:46;;;;;;;9.45;5.43;;;;;;;12.83;48.62;95612.75;5048827;28;20139;-68
2021/07/03 04:52:11;;;;;;;7.72;5.22;;;;;;;13.02;48.13;95616.63;5049016;28;20127;-68
2021/07/03 04:54:36;;;;;;;8.07;5.32;;;;;;;13.16;48.11;95614.88;5049308;28;20109;-68
2021/07/03 04:57:08;;;;;;;9.45;5.22;;;;;;;13.28;48.24;95620.53;5053023;28;20072;-68
2021/07/03 04:59:38;;;;;;;7.03;5.40;;;;;;;13.40;47.95;95612.78;5050339;28;20452;-68
2021/07/03 05:02:04;;;;;;;6.93;5.13;;;;;;;13.54;47.81;95608.34;5060911;28;20081;-68
2021/07/03 05:04:29;;;;;;;7.32;5.70;;;;;;;13.69;47.82;95605.56;5058208;28;20081;-68
2021/07/03 05:06:55;;;;;;;7.10;5.35;;;;;;;13.82;47.82;95610.16;5058930;28;20105;-68
2021/07/03 05:09:20;;;;;;;7.85;5.50;;;;;;;13.95;47.79;95608.56;5074923;28;20077;-68
2021/07/03 05:11:46;;;;;;;6.47;5.05;;;;;;;14.06;47.92;95609.84;5048557;28;20093;-68
2021/07/03 05:14:11;;;;;;;8.30;5.55;;;;;;;14.19;47.81;95609.91;5045780;28;20073;-68
2021/07/03 05:16:36;;;;;;;5.47;4.63;;;;;;;14.32;48.03;95613.63;5052874;28;20439;-68
2021/07/03 05:19:02;;;;;;;7.18;5.38;;;;;;;14.44;47.99;95612.00;5049567;28;20162;-68
2021/07/03 05:21:27;;;;;;;6.97;5.45;;;;;;;14.54;47.91;95616.16;5051924;28;20499;-68
2021/07/03 05:23:53;;;;;;;7.75;5.53;;;;;;;14.62;47.74;95613.25;5049551;28;20105;-68
2021/07/03 05:26:18;;;;;;;8.23;5.63;;;;;;;14.71;47.66;95614.75;5051397;28;20418;-68
2021/07/03 05:28:44;;;;;;;6.65;5.25;;;;;;;14.85;47.42;95617.44;5060271;28;20073;-68
2021/07/03 05:31:09;;;;;;;8.10;5.57;;;;;;;14.94;47.70;95623.44;5052950;28;20139;-68
2021/07/03 05:33:35;;;;;;;6.55;4.85;;;;;;;15.00;47.48;95624.47;5056922;28;20617;-68
2021/07/03 05:36:02;;;;;;;8.10;5.30;;;;;;;15.08;47.70;95629.63;5053677;28;20116;-68
2021/07/03 05:38:27;;;;;;;6.80;5.32;;;;;;;15.13;47.00;95621.78;5050608;28;20559;-68
2021/07/03 05:40:57;;;;;;;6.80;5.25;;;;;;;15.23;47.31;95616.81;5055058;28;20097;-69
2021/07/03 05:43:22;;;;;;;7.15;5.28;;;;;;;15.31;46.82;95623.00;5060410;28;20101;-68
2021/07/03 05:45:48;;;;;;;9.38;5.70;;;;;;;15.44;47.05;95622.19;5065830;28;20174;-68
2021/07/03 05:48:15;;;;;;;6.28;5.10;;;;;;;15.60;46.96;95624.44;5065270;28;20113;-68
2021/07/03 05:50:40;;;;;;;6.82;4.78;;;;;;;15.73;46.88;95623.59;5072948;28;20162;-68
2021/07/03 05:53:06;;;;;;;7.95;5.60;;;;;;;15.84;46.57;95623.97;5051842;28;20527;-68
2021/07/03 05:55:31;;;;;;;6.40;5.18;;;;;;;15.99;46.57;95619.16;5063951;28;20631;-68
2021/07/03 05:57:57;;;;;;;7.38;5.50;;;;;;;16.22;45.89;95625.88;5053696;28;20074;-68
2021/07/03 06:00:22;;;;;;;8.00;6.18;;;;;;;16.38;45.97;95624.59;5055543;28;20163;-69
2021/07/03 06:02:47;;;;;;;6.90;5.70;;;;;;;16.61;45.83;95625.06;5054677;28;20117;-69
2021/07/03 06:05:13;;;;;;;8.95;6.28;;;;;;;16.85;45.34;95628.00;5054909;28;20089;-69
2021/07/03 06:07:38;;;;;;;14.35;7.40;;;;;;;17.08;42.63;95626.59;5056621;28;20132;-68
2021/07/03 06:10:04;;;;;;;9.98;7.03;;;;;;;17.14;43.21;95621.19;5051810;28;20081;-68
2021/07/03 06:12:30;;;;;;;11.52;7.30;;;;;;;17.26;41.33;95617.78;5055053;28;20069;-68
2021/07/03 06:14:56;;;;;;;8.20;6.15;;;;;;;17.31;42.15;95617.13;5050776;28;20138;-69
2021/07/03 06:17:21;;;;;;;9.98;5.95;;;;;;;17.54;41.84;95624.53;5045049;28;20077;-69
2021/07/03 06:19:47;;;;;;;10.07;6.07;;;;;;;17.04;42.55;95626.22;5058674;28;20108;-69
2021/07/03 06:22:13;;;;;;;8.30;5.53;;;;;;;17.44;40.51;95624.25;5046964;28;20256;-68
2021/07/03 06:24:42;;;;;;;8.45;5.10;;;;;;;17.63;40.38;95625.91;5047657;28;20815;-69
2021/07/03 06:27:08;;;;;;;7.30;4.90;;;;;;;17.80;39.33;95620.78;5030342;28;20253;-69
2021/07/03 06:29:34;;;;;;;6.72;4.68;;;;;;;18.08;38.86;95618.59;5049018;28;20096;-69
2021/07/03 06:32:00;;;;;;;9.38;5.03;;;;;;;18.31;38.76;95619.75;5054108;28;20161;-69
2021/07/03 06:34:26;;;;;;;7.63;4.85;;;;;;;18.45;37.78;95615.00;5049316;28;20105;-68
2021/07/03 06:36:51;;;;;;;7.43;4.85;;;;;;;18.64;38.18;95613.13;5036274;28;20065;-69
2021/07/03 06:39:17;;;;;;;6.43;4.50;;;;;;;18.91;38.13;95618.13;5055614;28;20108;-69
2021/07/03 06:41:42;;;;;;;9.13;4.55;;;;;;;18.04;36.54;95612.84;5054005;28;20501;-69
2021/07/03 06:44:07;;;;;;;8.90;4.40;;;;;;;18.26;38.18;95614.25;5050968;28;20131;-69
2021/07/03 06:46:33;;;;;;;7.47;4.25;;;;;;;18.26;36.74;95609.66;5047086;28;20136;-69
2021/07/03 06:48:58;;;;;;;6.93;5.05;;;;;;;18.46;37.80;95622.03;5067161;28;20097;-69
2021/07/03 06:51:24;;;;;;;10.98;4.15;;;;;;;18.70;36.11;95614.09;5046358;28;20121;-69
2021/07/03 06:53:49;;;;;;;5.93;3.90;;;;;;;19.05;36.85;95616.03;5045968;28;20081;-70
2021/07/03 06:56:15;;;;;;;7.03;4.18;;;;;;;19.51;34.65;95620.88;5047796;28;20089;-69
2021/07/03 06:58:40;;;;;;;5.93;4.45;;;;;;;18.58;37.09;95624.81;5042426;28;20109;-69
2021/07/03 07:01:06;;;;;;;6.82;4.15;;;;;;;19.17;36.39;95626.03;5043155;28;20542;-69
2021/07/03 07:03:31;;;;;;;6.68;4.60;;;;;;;17.79;38.12;95624.47;5044632;28;20913;-69
2021/07/03 07:05:56;;;;;;;6.55;4.18;;;;;;;19.27;36.13;95623.56;5046458;28;20496;-69
2021/07/03 07:08:22;;;;;;;6.15;4.70;;;;;;;19.56;35.29;95618.31;5048650;28;20513;-69
2021/07/03 07:10:47;;;;;;;4.72;3.85;;;;;;;19.79;36.12;95611.22;5049370;28;20120;-69
2021/07/03 07:13:13;;;;;;;7.53;5.20;;;;;;;19.30;36.14;95624.97;5046491;28;20073;-69
2021/07/03 07:15:38;;;;;;;6.80;5.15;;;;;;;18.93;35.65;95620.56;5045066;28;20116;-69
2021/07/03 07:18:04;;;;;;;7.28;4.57;;;;;;;19.46;35.10;95618.91;5054638;28;20076;-69
2021/07/03 07:20:29;;;;;;;7.25;5.03;;;;;;;18.71;37.01;95610.34;5048910;28;20105;-69
2021/07/03 07:22:55;;;;;;;9.70;6.72;;;;;;;19.44;36.10;95603.97;5062869;28;20109;-70
2021/07/03 07:25:20;;;;;;;8.82;5.10;;;;;;;19.71;35.98;95611.56;5048683;28;20164;-70
2021/07/03 07:27:46;;;;;;;5.88;4.47;;;;;;;20.20;35.02;95618.56;5065131;28;20120;-70
2021/07/03 07:30:13;;;;;;;7.70;5.20;;;;;;;20.22;33.84;95608.31;5047278;28;20525;-70
2021/07/03 07:32:38;;;;;;;7.32;5.10;;;;;;;19.70;34.92;95604.53;5058521;28;20081;-70
2021/07/03 07:35:04;;;;;;;8.88;5.63;;;;;;;20.13;34.39;95604.38;5049918;28;20154;-81
2021/07/03 07:37:30;;;;;;;10.45;6.28;;;;;;;20.02;35.00;95603.34;5028483;28;20572;-81
2021/07/03 07:39:56;;;;;;;7.78;4.90;;;;;;;20.27;33.89;95603.03;5053492;28;20105;-64
2021/07/03 07:42:21;;;;;;;12.20;5.22;;;;;;;20.47;32.94;95609.88;5049372;28;20085;-65
2021/07/03 07:44:46;;;;;;;7.10;4.88;;;;;;;19.52;34.65;95614.44;5046412;28;20612;-66
2021/07/03 07:47:12;;;;;;;6.30;4.70;;;;;;;19.58;34.84;95613.47;5045132;28;20660;-66
2021/07/03 07:49:37;;;;;;;7.13;5.03;;;;;;;20.64;33.49;95612.66;5044236;28;20142;-65
2021/07/03 07:52:03;;;;;;;8.38;4.95;;;;;;;20.31;33.73;95604.19;5049881;28;20514;-65
2021/07/03 07:54:28;;;;;;;8.50;5.10;;;;;;;17.18;39.97;95613.50;5053111;28;20117;-65
2021/07/03 07:56:54;;;;;;;9.90;5.70;;;;;;;18.28;36.89;95615.66;5050173;28;20432;-65
2021/07/03 07:59:19;;;;;;;9.98;5.25;;;;;;;18.48;36.55;95611.88;5052490;28;20109;-65
2021/07/03 08:01:45;;;;;;;9.07;5.07;;;;;;;19.67;35.62;95605.00;5042051;28;20073;-65
2021/07/03 08:04:10;;;;;;;6.07;4.80;;;;;;;20.67;33.16;95605.94;5042040;28;20582;-66
2021/07/03 08:06:36;;;;;;;8.23;5.03;;;;;;;20.60;33.84;95593.34;5054481;28;20604;-65
2021/07/03 08:09:01;;;;;;;7.88;4.78;;;;;;;20.74;33.28;95593.09;5046085;28;20082;-65
2021/07/03 08:11:27;;;;;;;7.60;5.07;;;;;;;20.87;33.31;95594.63;5065554;28;20105;-65
2021/07/03 08:13:52;;;;;;;7.70;4.50;;;;;;;20.84;33.50;95595.13;5065029;28;20077;-65
2021/07/03 08:16:17;;;;;;;5.82;4.25;;;;;;;20.23;34.64;95585.66;5053530;28;20128;-65
2021/07/03 08:18:43;;;;;;;7.07;5.30;;;;;;;20.38;34.41;95584.28;5056389;28;20112;-65
2021/07/03 08:21:08;;;;;;;10.70;5.28;;;;;;;20.60;34.07;95574.41;5053649;28;20095;-65
2021/07/03 08:23:34;;;;;;;10.38;5.65;;;;;;;21.15;33.45;95578.56;5043875;28;20105;-65
2021/07/03 08:25:59;;;;;;;6.35;5.00;;;;;;;21.02;33.74;95569.72;5056583;28;20150;-65
2021/07/03 08:28:25;;;;;;;6.20;4.50;;;;;;;20.69;33.04;95571.34;5050245;28;20158;-65
2021/07/03 08:30:50;;;;;;;5.85;4.50;;;;;;;20.99;32.54;95573.75;5045819;28;20109;-65
2021/07/03 08:33:16;;;;;;;6.18;4.45;;;;;;;21.80;31.87;95570.84;5052507;28;20095;-65
2021/07/03 08:35:41;;;;;;;6.75;4.38;;;;;;;20.90;30.66;95579.81;5048618;28;20101;-66
2021/07/03 08:38:07;;;;;;;6.13;4.70;;;;;;;20.60;32.23;95569.00;5055056;28;20116;-65
2021/07/03 08:40:32;;;;;;;7.18;4.50;;;;;;;21.03;31.49;95565.94;5051524;28;20109;-66
2021/07/03 08:42:58;;;;;;;8.50;4.10;;;;;;;22.15;28.93;95566.94;5052026;28;20105;-65
2021/07/03 08:45:23;;;;;;;5.53;4.22;;;;;;;21.87;29.93;95568.75;5047993;28;20117;-66
2021/07/03 08:47:49;;;;;;;7.10;4.30;;;;;;;22.07;30.16;95561.16;5050734;28;20496;-66
2021/07/03 08:50:15;;;;;;;7.30;4.30;;;;;;;21.82;30.60;95563.25;5046854;28;20081;-65
2021/07/03 08:52:41;;;;;;;7.60;4.70;;;;;;;18.66;34.47;95559.00;5059473;28;20577;-65
2021/07/03 08:55:13;;;;;;;7.13;3.75;;;;;;;21.66;28.60;95561.44;5057265;28;20648;-65
2021/07/03 08:57:42;;;;;;;5.68;3.83;;;;;;;22.33;27.73;95558.72;5053219;28;20346;-65
2021/07/03 09:00:08;;;;;;;6.53;4.38;;;;;;;21.75;29.87;95558.03;5053629;28;20601;-65
2021/07/03 09:02:34;;;;;;;4.88;3.38;;;;;;;22.30;28.75;95564.66;5058768;28;20486;-64
2021/07/03 09:05:00;;;;;;;4.88;4.13;;;;;;;22.33;29.50;95558.72;5052536;28;20077;-66
2021/07/03 09:07:34;;;;;;;6.18;4.13;;;;;;;20.44;31.12;95559.81;5059814;28;20111;-66
2021/07/03 09:10:00;;;;;;;6.03;4.00;;;;;;;21.18;31.80;95561.84;5058377;28;20134;-66
2021/07/03 09:12:29;;;;;;;6.00;4.18;;;;;;;20.57;30.54;95574.91;5052482;28;20129;-66
2021/07/03 09:14:55;;;;;;;5.28;3.63;;;;;;;21.24;30.62;95564.38;5050363;28;20116;-66
2021/07/03 09:17:20;;;;;;;5.15;3.88;;;;;;;22.44;28.13;95552.31;5058487;28;20073;-66
2021/07/03 09:19:51;;;;;;;6.18;4.22;;;;;;;21.74;28.15;95553.69;5059413;28;20105;-65
2021/07/03 09:22:17;;;;;;;5.20;4.15;;;;;;;21.84;28.35;95558.44;5056525;28;20089;-65
2021/07/03 09:24:43;;;;;;;4.55;3.60;;;;;;;21.66;28.82;95561.44;5058839;28;20108;-65
2021/07/03 09:27:12;;;;;;;4.22;3.83;;;;;;;22.86;28.60;95561.66;5049740;28;20112;-65
2021/07/03 09:29:48;;;;;;;5.18;3.90;;;;;;;22.63;29.14;95565.53;5047239;28;20089;-66
2021/07/03 09:32:14;;;;;;;4.82;3.60;;;;;;;23.20;28.69;95552.44;5055611;28;20112;-65
2021/07/03 09:34:41;;;;;;;4.87;4.10;;;;;;;23.45;25.66;95558.31;5050045;28;20460;-65
2021/07/03 09:37:06;;;;;;;6.55;4.20;;;;;;;20.89;29.71;95561.91;5051915;28;20554;-66
2021/07/03 09:39:32;;;;;;;12.23;4.60;;;;;;;22.61;28.25;95556.84;5055742;28;20219;-65
2021/07/03 09:41:58;;;;;;;4.83;3.50;;;;;;;24.06;26.59;95565.94;5035701;28;20073;-66
2021/07/03 09:44:23;;;;;;;3.78;3.13;;;;;;;24.33;25.78;95566.84;5052037;28;20116;-65
2021/07/03 09:46:52;;;;;;;3.90;3.43;;;;;;;24.78;25.39;95559.00;5048536;28;20612;-66
2021/07/03 09:49:20;;;;;;;3.95;3.50;;;;;;;20.93;30.61;95568.47;5053249;28;20069;-65
2021/07/03 09:51:53;;;;;;;6.20;3.38;;;;;;;23.43;28.63;95575.66;5055320;28;20105;-65
2021/07/03 09:54:20;;;;;;;3.92;3.08;;;;;;;24.26;27.22;95571.69;5049578;28;20082;-65
2021/07/03 09:56:45;;;;;;;;;;;;;;;23.49;26.35;95573.00;5054087;28;20090;-66
2021/07/03 09:59:11;;;;;;;5.47;3.43;;;;;;;23.98;26.33;95557.47;5052809;28;20431;-66
2021/07/03 10:01:40;;;;;;;4.07;3.37;;;;;;;23.90;26.54;95561.53;5054656;28;20127;-65
2021/07/03 10:04:07;;;;;;;5.13;3.33;;;;;;;24.20;27.34;95566.25;5076781;28;20108;-66
2021/07/03 10:06:43;;;;;;;5.13;3.70;;;;;;;23.68;27.14;95562.47;5051604;28;20220;-66
2021/07/03 10:09:09;;;;;;;;;;;;;;;23.92;26.08;95551.19;5033112;28;20080;-65
2021/07/03 10:11:41;;;;;;;4.57;2.90;;;;;;;24.34;26.25;95554.91;5064584;28;20416;-65
2021/07/03 10:14:06;;;;;;;3.33;3.03;;;;;;;24.95;25.04;95547.88;5049291;28;20108;-66
2021/07/03 10:16:33;;;;;;;4.97;3.40;;;;;;;24.50;26.30;95542.13;5047531;28;20104;-65
2021/07/03 10:19:10;;;;;;;4.32;3.28;;;;;;;24.37;26.32;95542.66;5046847;28;20101;-65
2021/07/03 10:21:35;;;;;;;5.30;3.15;;;;;;;24.41;25.58;95550.00;5051918;28;20069;-65
2021/07/03 10:24:01;;;;;;;3.60;3.10;;;;;;;24.20;25.39;95540.94;5045476;28;20458;-66
2021/07/03 10:26:38;;;;;;;4.57;3.10;;;;;;;24.91;24.15;95533.19;5049576;28;20121;-65
2021/07/03 10:29:13;;;;;;;6.80;3.42;;;;;;;25.10;24.53;95532.63;5052026;28;20545;-66
2021/07/03 10:31:39;;;;;;;3.42;2.97;;;;;;;25.11;24.39;95534.25;5053414;28;20215;-65
2021/07/03 10:34:04;;;;;;;5.37;3.00;;;;;;;23.00;26.33;95534.06;5044664;28;20534;-65
2021/07/03 10:36:31;;;;;;;3.87;3.10;;;;;;;24.64;24.96;95528.81;5048272;28;20552;-66
2021/07/03 10:38:57;;;;;;;4.22;2.90;;;;;;;25.50;25.17;95530.13;5050555;28;20755;-65
2021/07/03 10:41:27;;;;;;;3.35;2.80;;;;;;;25.44;24.27;95514.84;5048966;28;20085;-65
2021/07/03 10:43:55;;;;;;;3.60;3.13;;;;;;;25.31;22.78;95516.25;5029501;28;20113;-66
2021/07/03 10:46:32;;;;;;;7.63;3.20;;;;;;;25.59;24.42;95519.47;5054957;28;20128;-65
2021/07/03 10:49:10;;;;;;;5.15;3.00;;;;;;;26.37;23.37;95503.56;5050127;28;20202;-66
2021/07/03 10:51:37;;;;;;;5.13;3.28;;;;;;;24.91;25.44;95514.13;5057072;28;20116;-66
2021/07/03 10:54:20;;;;;;;3.65;3.00;;;;;;;25.63;23.22;95512.38;5051471;28;20077;-66
2021/07/03 10:56:49;;;;;;;4.05;2.80;;;;;;;25.35;23.36;95511.88;5047174;28;20136;-66
2021/07/03 10:59:16;;;;;;;4.28;2.70;;;;;;;25.58;23.29;95526.00;5046523;28;20105;-66
2021/07/03 11:01:41;;;;;;;3.22;2.88;;;;;;;23.35;25.20;95523.75;5047484;28;20131;-66
2021/07/03 11:04:21;;;;;;;3.03;2.80;;;;;;;24.68;26.47;95519.00;5044707;28;20166;-65
2021/07/03 11:06:52;;;;;;;5.03;3.00;;;;;;;25.88;22.52;95507.91;5047022;28;20104;-66
2021/07/03 11:09:18;;;;;;;3.13;2.83;;;;;;;26.10;24.64;95514.91;5047619;28;20089;-66
2021/07/03 11:11:44;;;;;;;4.35;2.83;;;;;;;27.46;21.00;95510.00;5050867;28;20112;-66
2021/07/03 11:14:09;;;;;;;2.93;2.40;;;;;;;28.41;20.09;95505.00;5046419;28;20494;-65
2021/07/03 11:16:34;;;;;;;2.93;2.60;;;;;;;28.00;19.86;95509.91;5030604;28;20869;-66
2021/07/03 11:19:00;;;;;;;2.90;2.60;;;;;;;27.75;20.58;95497.41;5051615;28;20663;-65
2021/07/03 11:21:25;;;;;;;2.57;2.37;;;;;;;27.09;20.99;95503.28;5048271;28;20565;-66
2021/07/03 11:24:00;;;;;;;3.03;2.20;;;;;;;27.54;21.75;95502.28;5054118;28;20108;-66
2021/07/03 11:26:25;;;;;;;2.88;2.40;;;;;;;27.13;20.96;95496.94;5048654;28;20077;-65